Time;durP1;ratioP1;P1;durP2;ratioP2;P2;SDS_P1;SDS_P2;PMS_P1;PMS_P2;Temp;Humidity;BMP_temperature;BMP_pressure;BME280_temperature;BME280_humidity;BME280_pressure;Samples;Min_cycle;Max_cycle;Signal;HPM_P1;HPM_P2
2022/05/30 00:00:30;;;;;;;2.57;2.23;;;;;;;7.67;100.00;100228.84;4987438;28;20212;-72
2022/05/30 00:02:57;;;;;;;2.50;2.20;;;;;;;7.69;100.00;100222.75;4989200;28;20265;-72
2022/05/30 00:05:25;;;;;;;2.20;2.00;;;;;;;7.66;100.00;100227.16;4984994;28;20197;-72
2022/05/30 00:07:52;;;;;;;2.17;1.97;;;;;;;7.72;100.00;100225.28;4987946;28;20799;-72
2022/05/30 00:10:19;;;;;;;2.57;2.33;;;;;;;7.59;100.00;100226.41;4983226;28;20213;-73
2022/05/30 00:12:46;;;;;;;3.13;2.27;;;;;;;7.72;100.00;100216.63;4985241;28;20279;-71
2022/05/30 00:15:16;;;;;;;3.37;2.60;;;;;;;7.68;100.00;100218.44;4984538;28;20200;-71
2022/05/30 00:17:43;;;;;;;3.13;2.50;;;;;;;7.68;100.00;100210.66;4986821;28;20211;-72
2022/05/30 00:20:11;;;;;;;2.77;2.17;;;;;;;7.72;100.00;100208.84;4988144;28;20201;-72
2022/05/30 00:22:39;;;;;;;4.37;2.37;;;;;;;7.87;100.00;100216.31;4989179;28;20585;-72
2022/05/30 00:25:06;;;;;;;2.90;2.50;;;;;;;7.81;100.00;100208.66;4988125;28;20197;-72
2022/05/30 00:27:32;;;;;;;3.07;2.33;;;;;;;7.84;100.00;100208.59;4988160;28;20555;-72
2022/05/30 00:29:59;;;;;;;2.37;2.17;;;;;;;7.74;100.00;100218.31;4969938;28;20217;-71
2022/05/30 00:32:25;;;;;;;2.70;2.50;;;;;;;7.78;100.00;100219.09;4986848;28;20228;-73
2022/05/30 00:34:52;;;;;;;4.40;2.47;;;;;;;7.86;100.00;100217.22;4972568;28;20221;-72
2022/05/30 00:37:19;;;;;;;2.60;2.40;;;;;;;7.86;100.00;100225.00;4970756;28;20205;-70
2022/05/30 00:39:46;;;;;;;2.33;2.13;;;;;;;7.90;100.00;100225.78;4985536;28;20224;-71
2022/05/30 00:42:16;;;;;;;2.80;2.33;;;;;;;7.88;100.00;100228.41;4971372;28;20197;-72
2022/05/30 00:44:43;;;;;;;2.93;2.40;;;;;;;7.91;100.00;100217.94;4986705;28;20229;-72
2022/05/30 00:47:11;;;;;;;4.07;3.00;;;;;;;7.95;100.00;100219.59;4986425;28;20194;-72
2022/05/30 00:49:39;;;;;;;2.37;2.13;;;;;;;7.92;100.00;100211.88;4972117;28;20214;-71
2022/05/30 00:52:07;;;;;;;2.33;2.13;;;;;;;7.95;100.00;100214.41;4969835;28;20271;-71
2022/05/30 00:54:38;;;;;;;3.57;2.77;;;;;;;8.10;100.00;100217.56;4971233;28;20323;-71
2022/05/30 00:57:21;;;;;;;2.40;2.20;;;;;;;8.07;100.00;100212.41;4974034;28;20208;-72
2022/05/30 00:59:51;;;;;;;4.00;2.80;;;;;;;8.08;100.00;100215.00;4983387;28;20209;-72
2022/05/30 01:02:17;;;;;;;3.37;2.83;;;;;;;8.10;100.00;100214.97;4967164;28;20249;-72
2022/05/30 01:07:28;;;;;;;2.80;2.37;;;;;;;8.01;100.00;100218.63;4968717;28;20208;-72
2022/05/30 01:09:56;;;;;;;3.40;2.30;;;;;;;8.04;100.00;100205.56;4977230;28;20213;-69
2022/05/30 01:12:37;;;;;;;3.07;2.60;;;;;;;8.08;100.00;100215.00;4987488;28;20246;-72
2022/05/30 01:15:06;;;;;;;3.30;2.63;;;;;;;7.91;100.00;100206.72;4971190;28;20200;-71
2022/05/30 01:17:32;;;;;;;2.90;2.60;;;;;;;7.86;100.00;100212.03;4976925;28;20321;-72
2022/05/30 01:20:05;;;;;;;2.27;2.03;;;;;;;7.90;100.00;100205.03;4978931;28;20213;-72
2022/05/30 01:22:46;;;;;;;2.70;2.50;;;;;;;7.84;100.00;100205.16;4982466;28;20312;-73
2022/05/30 01:25:26;;;;;;;4.27;2.23;;;;;;;7.79;100.00;100207.81;4992616;28;20208;-72
2022/05/30 01:28:11;;;;;;;2.70;2.50;;;;;;;7.72;100.00;100206.25;4973269;28;20255;-72
2022/05/30 01:30:43;;;;;;;2.60;2.27;;;;;;;7.71;100.00;100202.81;4979527;28;20558;-72
2022/05/30 01:33:11;;;;;;;3.67;2.40;;;;;;;7.54;100.00;100205.75;4977465;28;20228;-72
2022/05/30 01:36:30;;;;;;;4.60;2.73;;;;;;;7.56;100.00;100204.00;4985785;28;20285;-73
2022/05/30 01:38:57;;;;;;;2.73;2.30;;;;;;;7.54;100.00;100202.31;4978146;28;20201;-72
2022/05/30 01:41:37;;;;;;;4.07;2.87;;;;;;;7.47;100.00;100198.13;4972482;28;20199;-72
2022/05/30 01:44:05;;;;;;;2.20;2.00;;;;;;;7.42;100.00;100197.34;4977004;28;20257;-71
2022/05/30 01:46:33;;;;;;;2.40;2.20;;;;;;;7.44;100.00;100198.19;4969385;28;20251;-72
2022/05/30 01:49:01;;;;;;;3.33;2.13;;;;;;;7.31;100.00;100198.41;4984075;28;20193;-71
2022/05/30 01:51:29;;;;;;;2.70;2.40;;;;;;;7.23;100.00;100192.56;4982386;28;20220;-72
2022/05/30 01:54:00;;;;;;;2.30;2.10;;;;;;;7.29;100.00;100192.41;4975000;28;20291;-73
2022/05/30 01:56:46;;;;;;;2.47;2.27;;;;;;;7.14;100.00;100193.56;4990982;28;20220;-71
2022/05/30 01:59:13;;;;;;;1.93;1.80;;;;;;;7.04;100.00;100194.63;4975967;28;20244;-72
2022/05/30 02:01:45;;;;;;;2.43;2.10;;;;;;;7.00;100.00;100199.00;4990678;28;20236;-72
2022/05/30 02:04:14;;;;;;;3.93;2.00;;;;;;;6.90;100.00;100199.22;4972762;28;20228;-73
2022/05/30 02:06:40;;;;;;;2.23;2.03;;;;;;;6.90;100.00;100200.06;4973193;28;20292;-71
2022/05/30 02:09:07;;;;;;;2.57;2.20;;;;;;;7.09;100.00;100205.78;4978788;28;20210;-73
2022/05/30 02:11:35;;;;;;;2.63;2.43;;;;;;;6.92;100.00;100200.03;4975363;28;20289;-71
2022/05/30 02:14:20;;;;;;;2.77;2.47;;;;;;;6.77;100.00;100198.56;4989652;28;20259;-72
2022/05/30 02:17:02;;;;;;;2.43;2.23;;;;;;;6.63;100.00;100201.38;4979362;28;20261;-70
2022/05/30 02:19:31;;;;;;;3.03;2.50;;;;;;;6.68;100.00;100196.13;4970904;28;20222;-72
2022/05/30 02:21:59;;;;;;;3.17;2.37;;;;;;;6.80;100.00;100201.09;4969816;28;20298;-72
2022/05/30 02:24:26;;;;;;;2.57;2.37;;;;;;;6.77;100.00;100204.59;4990649;28;20303;-72
2022/05/30 02:26:52;;;;;;;3.03;2.23;;;;;;;6.68;100.00;100207.31;4990882;28;20216;-72
2022/05/30 02:29:19;;;;;;;2.23;1.90;;;;;;;6.75;100.00;100203.75;4972014;28;20198;-71
2022/05/30 02:31:55;;;;;;;3.27;2.37;;;;;;;6.65;100.00;100204.81;4969264;28;20217;-72
2022/05/30 02:37:07;;;;;;;2.20;1.97;;;;;;;6.52;100.00;100209.31;4972332;28;20201;-72
2022/05/30 02:39:35;;;;;;;2.60;2.20;;;;;;;6.61;100.00;100206.59;4980745;28;20221;-72
2022/05/30 02:42:21;;;;;;;2.13;1.93;;;;;;;6.60;100.00;100214.41;4989761;28;20203;-70
2022/05/30 02:44:49;;;;;;;3.30;2.73;;;;;;;6.57;100.00;100212.69;4970662;28;20923;-71
2022/05/30 02:47:17;;;;;;;4.10;2.47;;;;;;;6.51;100.00;100206.75;4973809;28;20212;-72
2022/05/30 02:49:50;;;;;;;3.07;2.47;;;;;;;6.44;100.00;100208.59;4976028;28;20208;-72
2022/05/30 02:52:16;;;;;;;2.90;2.13;;;;;;;6.47;100.00;100211.13;4968419;28;20228;-70
2022/05/30 02:54:43;;;;;;;3.63;2.53;;;;;;;6.51;100.00;100215.41;4969446;28;20294;-70
2022/05/30 02:57:16;;;;;;;3.10;2.80;;;;;;;6.44;100.00;100212.03;4972766;28;20303;-71
2022/05/30 02:59:43;;;;;;;2.63;2.43;;;;;;;6.44;100.00;100222.41;4974058;28;20209;-72
2022/05/30 03:02:09;;;;;;;2.70;2.43;;;;;;;6.33;100.00;100224.31;4973708;28;20570;-72
2022/05/30 03:04:38;;;;;;;3.73;2.70;;;;;;;6.32;100.00;100226.91;4990621;28;20232;-71
2022/05/30 03:07:06;;;;;;;5.20;2.83;;;;;;;6.34;100.00;100228.59;4978855;28;20597;-72
2022/05/30 03:09:33;;;;;;;3.00;2.60;;;;;;;6.23;100.00;100236.53;4972303;28;20620;-72
2022/05/30 03:12:18;;;;;;;3.43;3.13;;;;;;;6.21;100.00;100230.53;4987578;28;20259;-72
2022/05/30 03:14:44;;;;;;;3.17;2.70;;;;;;;6.16;100.00;100229.72;4976087;28;20217;-71
2022/05/30 03:17:11;;;;;;;3.87;3.47;;;;;;;6.21;100.00;100238.28;4979417;28;20200;-72
2022/05/30 03:19:43;;;;;;;7.40;2.83;;;;;;;6.32;100.00;100240.72;4972085;28;20655;-72
2022/05/30 03:22:10;;;;;;;3.70;3.40;;;;;;;6.20;100.00;100236.56;4985634;28;20193;-72
2022/05/30 03:24:54;;;;;;;2.97;2.67;;;;;;;6.24;100.00;100237.38;4973612;28;20223;-71
2022/05/30 03:27:21;;;;;;;2.90;2.70;;;;;;;6.35;100.00;100238.09;4986624;28;20232;-72
2022/05/30 03:29:48;;;;;;;2.93;2.63;;;;;;;6.22;100.00;100232.22;4969431;28;20354;-72
2022/05/30 03:32:14;;;;;;;6.17;3.03;;;;;;;6.43;100.00;100232.78;4985714;28;20219;-70
2022/05/30 03:34:42;;;;;;;3.27;2.87;;;;;;;6.43;100.00;100233.63;4968654;28;20227;-72
2022/05/30 03:37:09;;;;;;;3.17;2.93;;;;;;;6.56;100.00;100231.72;4971060;28;20237;-72
2022/05/30 03:39:47;;;;;;;6.43;3.63;;;;;;;6.51;100.00;100246.47;4982235;28;20744;-73
2022/05/30 03:42:32;;;;;;;4.40;2.90;;;;;;;6.46;100.00;100252.63;4985763;28;20200;-72
2022/05/30 03:45:01;;;;;;;3.57;3.23;;;;;;;6.37;100.00;100253.59;4970725;28;20257;-72
2022/05/30 03:47:27;;;;;;;3.77;2.93;;;;;;;6.31;100.00;100243.31;4984139;28;20197;-71
2022/05/30 03:50:01;;;;;;;7.07;3.40;;;;;;;6.30;100.00;100252.84;4972090;28;20198;-72
2022/05/30 03:52:28;;;;;;;3.83;2.80;;;;;;;6.42;100.00;100257.84;4978151;28;20217;-72
2022/05/30 03:54:56;;;;;;;3.80;3.20;;;;;;;6.52;100.00;100258.53;4975306;28;20228;-71
2022/05/30 03:57:22;;;;;;;5.87;3.50;;;;;;;6.51;100.00;100256.84;4977025;28;20205;-72
2022/05/30 03:59:49;;;;;;;4.07;3.47;;;;;;;6.62;100.00;100265.28;4969808;28;20277;-72
2022/05/30 04:02:16;;;;;;;5.47;3.57;;;;;;;6.60;100.00;100261.03;4974058;28;20189;-72
2022/05/30 04:04:42;;;;;;;3.43;3.13;;;;;;;6.69;100.00;100266.06;4984853;28;20287;-71
2022/05/30 04:07:10;;;;;;;4.37;3.47;;;;;;;6.68;100.00;100272.09;4981534;28;20619;-70
2022/05/30 04:09:56;;;;;;;4.57;3.60;;;;;;;6.82;100.00;100275.34;4981995;28;20212;-70
2022/05/30 04:13:00;;;;;;;5.90;3.93;;;;;;;6.93;100.00;100271.69;4981781;28;20247;-71
2022/05/30 04:15:58;;;;;;;4.37;3.63;;;;;;;6.83;100.00;100269.28;4984181;28;20212;-71
2022/05/30 04:18:25;;;;;;;4.70;3.00;;;;;;;6.79;100.00;100267.63;4978079;28;20221;-71
2022/05/30 04:20:51;;;;;;;5.33;3.60;;;;;;;6.85;100.00;100271.00;4967247;28;20718;-71
2022/05/30 04:23:19;;;;;;;5.90;3.40;;;;;;;6.96;100.00;100269.91;4981221;28;20268;-71
2022/05/30 04:25:54;;;;;;;3.70;3.03;;;;;;;6.99;100.00;100274.22;4972781;28;20274;-71
2022/05/30 04:28:21;;;;;;;6.63;3.40;;;;;;;7.14;100.00;100268.75;4967588;28;20293;-71
2022/05/30 04:31:00;;;;;;;3.50;3.20;;;;;;;7.06;100.00;100268.03;4966514;28;20290;-71
2022/05/30 04:33:27;;;;;;;5.33;3.53;;;;;;;7.23;100.00;100278.13;4966831;28;20221;-71
2022/05/30 04:35:53;;;;;;;5.57;3.07;;;;;;;7.32;100.00;100269.31;4969355;28;20208;-70
2022/05/30 04:38:21;;;;;;;5.47;3.47;;;;;;;7.31;100.00;100271.03;4986268;28;20987;-70
2022/05/30 04:41:09;;;;;;;5.17;3.77;;;;;;;7.31;100.00;100268.44;4977529;28;20185;-71
2022/05/30 04:43:56;;;;;;;4.37;3.77;;;;;;;7.43;100.00;100276.91;4996401;28;20284;-71
2022/05/30 04:46:52;;;;;;;4.60;4.03;;;;;;;7.53;100.00;100281.03;4998772;28;20201;-71
2022/05/30 04:49:19;;;;;;;4.37;3.53;;;;;;;7.61;100.00;100267.91;4989304;28;20204;-71
2022/05/30 04:51:47;;;;;;;7.33;3.97;;;;;;;7.80;100.00;100269.25;4990685;28;20207;-70
2022/05/30 04:54:15;;;;;;;5.77;3.90;;;;;;;7.94;100.00;100271.56;5009323;28;20311;-71
2022/05/30 04:57:08;;;;;;;5.07;4.53;;;;;;;8.15;100.00;100271.09;4981499;28;20681;-71
2022/05/30 04:59:42;;;;;;;5.77;4.37;;;;;;;8.44;100.00;100273.97;4989482;28;20193;-72
2022/05/30 05:02:12;;;;;;;5.33;4.00;;;;;;;8.53;100.00;100261.63;4971329;28;20658;-71
2022/05/30 05:04:41;;;;;;;6.07;4.20;;;;;;;8.41;100.00;100269.66;4972125;28;20614;-70
2022/05/30 05:07:09;;;;;;;6.50;4.37;;;;;;;8.46;100.00;100275.66;4967651;28;20258;-70
2022/05/30 05:09:51;;;;;;;6.70;4.47;;;;;;;8.58;100.00;100278.84;4972763;28;20218;-72
2022/05/30 05:12:36;;;;;;;4.73;3.90;;;;;;;8.66;100.00;100282.13;4989821;28;20214;-71
2022/05/30 05:15:31;;;;;;;5.67;4.30;;;;;;;8.71;100.00;100281.13;4990439;28;20212;-70
2022/05/30 05:18:11;;;;;;;6.77;4.03;;;;;;;8.96;100.00;100280.53;4988904;28;20198;-71
2022/05/30 05:20:39;;;;;;;5.23;4.10;;;;;;;9.10;100.00;100280.16;4969554;28;20571;-70
2022/05/30 05:23:05;;;;;;;6.97;4.17;;;;;;;9.03;100.00;100289.03;4990721;28;20330;-70
2022/05/30 05:25:56;;;;;;;5.47;4.23;;;;;;;8.89;100.00;100292.81;4977618;28;20244;-70
2022/05/30 05:28:29;;;;;;;3.77;3.47;;;;;;;8.85;100.00;100292.94;4979446;28;20679;-70
2022/05/30 05:30:57;;;;;;;4.00;3.60;;;;;;;8.78;100.00;100294.81;4970518;28;20212;-71
2022/05/30 05:33:23;;;;;;;3.93;3.03;;;;;;;8.87;100.00;100291.16;4977928;28;20237;-71
2022/05/30 05:35:50;;;;;;;3.73;3.30;;;;;;;9.00;100.00;100291.69;4967058;28;20358;-70
2022/05/30 05:38:16;;;;;;;5.93;3.10;;;;;;;9.21;100.00;100295.50;4984932;28;21109;-69
2022/05/30 05:41:00;;;;;;;4.10;3.50;;;;;;;9.58;100.00;100295.38;4983124;28;20638;-69
2022/05/30 05:43:36;;;;;;;3.53;3.00;;;;;;;9.72;100.00;100296.75;4968476;28;20960;-70
2022/05/30 05:46:03;;;;;;;5.53;3.83;;;;;;;9.65;100.00;100293.47;4971718;28;20587;-70
2022/05/30 05:48:29;;;;;;;4.13;3.73;;;;;;;9.79;100.00;100306.94;4986533;28;20202;-70
2022/05/30 05:50:56;;;;;;;4.90;3.20;;;;;;;10.03;100.00;100301.94;4989216;28;20205;-70
2022/05/30 05:53:22;;;;;;;4.93;3.80;;;;;;;10.30;100.00;100302.03;4973894;28;20221;-70
2022/05/30 05:55:49;;;;;;;7.40;3.67;;;;;;;10.43;100.00;100292.97;4973681;28;20202;-69
2022/05/30 05:58:17;;;;;;;3.80;3.30;;;;;;;10.41;100.00;100308.66;4976500;28;20422;-70
2022/05/30 06:00:44;;;;;;;6.00;3.53;;;;;;;10.42;100.00;100306.91;4971325;28;20264;-72
2022/05/30 06:03:10;;;;;;;5.70;3.50;;;;;;;10.60;100.00;100308.94;4981299;28;20646;-70
2022/05/30 06:05:57;;;;;;;3.43;3.13;;;;;;;10.65;100.00;100311.41;4984375;28;20702;-70
2022/05/30 06:08:48;;;;;;;3.03;2.73;;;;;;;10.91;100.00;100310.56;4971687;28;20698;-70
2022/05/30 06:11:22;;;;;;;3.93;2.90;;;;;;;11.05;100.00;100312.72;4967129;28;20205;-72
2022/05/30 06:13:57;;;;;;;3.47;2.70;;;;;;;11.16;100.00;100320.19;4972924;28;20576;-71
2022/05/30 06:16:25;;;;;;;3.40;2.77;;;;;;;11.30;100.00;100317.13;4976344;28;20290;-70
2022/05/30 06:18:54;;;;;;;4.10;3.30;;;;;;;11.35;100.00;100302.16;4965037;28;20203;-73
2022/05/30 06:21:23;;;;;;;4.60;3.50;;;;;;;11.42;100.00;100314.09;4976105;28;20203;-73
2022/05/30 06:23:50;;;;;;;3.93;2.47;;;;;;;11.48;100.00;100302.59;4974561;28;20592;-71
2022/05/30 06:26:26;;;;;;;3.63;2.57;;;;;;;11.60;100.00;100306.53;4986413;28;20284;-70
2022/05/30 06:29:10;;;;;;;3.20;2.70;;;;;;;11.65;100.00;100304.59;4972950;28;20599;-70
2022/05/30 06:31:37;;;;;;;3.97;2.97;;;;;;;11.78;100.00;100295.41;4976887;28;20208;-72
2022/05/30 06:34:04;;;;;;;3.80;3.07;;;;;;;11.71;100.00;100304.38;4963476;28;20307;-73
2022/05/30 06:36:40;;;;;;;5.10;2.67;;;;;;;11.84;100.00;100297.81;4972340;28;20263;-71
2022/05/30 06:39:07;;;;;;;2.70;2.20;;;;;;;11.77;100.00;100301.56;4968985;28;20203;-70
2022/05/30 06:41:36;;;;;;;3.03;2.70;;;;;;;11.74;100.00;100299.91;4969997;28;20574;-72
2022/05/30 06:44:10;;;;;;;4.23;2.93;;;;;;;11.80;100.00;100290.97;4971803;28;20221;-72
2022/05/30 06:47:15;;;;;;;2.77;2.30;;;;;;;11.77;100.00;100298.06;4964495;28;20695;-70
2022/05/30 06:49:59;;;;;;;3.50;2.50;;;;;;;11.64;100.00;100305.50;4964801;28;20209;-71
2022/05/30 06:52:27;;;;;;;3.77;2.13;;;;;;;11.59;100.00;100302.19;4966307;28;20197;-70
2022/05/30 06:54:54;;;;;;;3.80;2.17;;;;;;;11.55;100.00;100304.06;4971079;28;20284;-70
2022/05/30 07:00:10;;;;;;;2.10;1.90;;;;;;;11.51;100.00;100312.94;4977024;28;20201;-70
2022/05/30 07:02:54;;;;;;;3.07;2.10;;;;;;;11.82;100.00;100297.03;4968682;28;20854;-71
2022/05/30 07:05:40;;;;;;;4.17;2.80;;;;;;;11.95;100.00;100307.06;4987526;28;20214;-70
2022/05/30 07:08:35;;;;;;;4.63;2.20;;;;;;;12.07;100.00;100310.06;4982539;28;20208;-70
2022/05/30 07:11:23;;;;;;;3.13;2.50;;;;;;;11.95;100.00;100310.50;4987902;28;20220;-71
2022/05/30 07:13:50;;;;;;;2.87;2.00;;;;;;;12.03;100.00;100312.81;4968908;28;20296;-70
2022/05/30 07:16:18;;;;;;;3.27;2.20;;;;;;;12.23;100.00;100312.09;4982982;28;20208;-70
2022/05/30 07:18:45;;;;;;;2.63;2.20;;;;;;;12.35;100.00;100322.09;4986528;28;20203;-72
2022/05/30 07:21:14;;;;;;;2.83;2.50;;;;;;;12.54;100.00;100321.38;4973002;28;20307;-72
2022/05/30 07:23:59;;;;;;;2.83;2.30;;;;;;;12.73;100.00;100330.19;4986440;28;20240;-72
2022/05/30 07:26:44;;;;;;;2.80;1.80;;;;;;;12.96;100.00;100325.78;4983194;28;20211;-70
2022/05/30 07:29:40;;;;;;;2.40;2.20;;;;;;;13.23;100.00;100323.81;4895851;28;20304;-71
2022/05/30 07:32:27;;;;;;;4.70;2.33;;;;;;;13.23;100.00;100322.03;4981473;28;20208;-70
2022/05/30 07:35:12;;;;;;;2.20;1.80;;;;;;;13.18;100.00;100328.41;4981863;28;20236;-72
2022/05/30 07:37:57;;;;;;;2.30;2.10;;;;;;;13.23;100.00;100329.06;4984424;28;20696;-70
2022/05/30 07:40:30;;;;;;;3.47;2.07;;;;;;;13.22;100.00;100330.81;4973104;28;20200;-71
2022/05/30 07:43:20;;;;;;;2.10;1.90;;;;;;;13.64;100.00;100327.31;4971667;28;20984;-71
2022/05/30 07:46:03;;;;;;;3.87;2.17;;;;;;;13.77;100.00;100332.00;4980229;28;20240;-72
2022/05/30 07:48:49;;;;;;;2.20;1.70;;;;;;;13.96;99.92;100338.13;4980591;28;20687;-72
2022/05/30 07:51:36;;;;;;;3.63;2.00;;;;;;;14.29;100.00;100332.28;4959542;28;20228;-70
2022/05/30 07:54:15;;;;;;;1.60;1.50;;;;;;;14.54;97.06;100334.59;4964069;28;20756;-71
2022/05/30 07:57:04;;;;;;;1.40;1.30;;;;;;;14.69;92.56;100340.09;4977887;28;20211;-70
2022/05/30 07:59:30;;;;;;;1.43;1.20;;;;;;;14.61;92.21;100348.31;4965573;28;20228;-73
2022/05/30 08:01:57;;;;;;;2.17;1.33;;;;;;;14.46;88.32;100354.25;4966569;28;20674;-70
2022/05/30 08:04:27;;;;;;;1.30;1.20;;;;;;;14.23;88.39;100356.19;4970758;28;20226;-72
2022/05/30 08:06:59;;;;;;;1.53;1.40;;;;;;;14.29;91.58;100349.78;4982086;28;20710;-71
2022/05/30 08:09:52;;;;;;;1.50;1.20;;;;;;;14.46;90.90;100344.63;4979421;28;20265;-70
2022/05/30 08:12:24;;;;;;;1.67;1.20;;;;;;;14.30;88.39;100349.72;4982840;28;20274;-70
2022/05/30 08:14:50;;;;;;;1.37;1.00;;;;;;;14.13;90.24;100345.25;4980509;28;20256;-71
2022/05/30 08:17:17;;;;;;;2.40;1.30;;;;;;;13.85;85.87;100350.88;4969083;28;20190;-72
2022/05/30 08:19:44;;;;;;;1.80;1.03;;;;;;;13.68;86.19;100348.13;4969332;28;20231;-71
2022/05/30 08:22:12;;;;;;;1.20;0.90;;;;;;;13.44;86.52;100346.50;4974578;28;20209;-72
2022/05/30 08:24:41;;;;;;;4.47;1.40;;;;;;;13.53;88.90;100340.03;4968264;28;20245;-70
2022/05/30 08:27:13;;;;;;;1.50;1.10;;;;;;;13.94;89.21;100342.59;4975791;28;20260;-70
2022/05/30 08:29:43;;;;;;;2.13;1.27;;;;;;;14.36;87.53;100346.81;4971031;28;20510;-70
2022/05/30 08:32:11;;;;;;;3.93;1.30;;;;;;;14.40;78.63;100363.25;4965570;28;20206;-69
2022/05/30 08:34:58;;;;;;;1.20;0.90;;;;;;;14.43;86.52;100343.91;4981407;28;20687;-69
2022/05/30 08:37:30;;;;;;;1.73;1.03;;;;;;;14.25;82.29;100353.47;4967566;28;20229;-69
2022/05/30 08:42:41;;;;;;;1.20;1.10;;;;;;;13.83;85.62;100345.69;4970483;28;20701;-69
2022/05/30 08:45:16;;;;;;;1.80;1.10;;;;;;;13.83;85.80;100353.56;4981034;28;20199;-69
2022/05/30 08:47:52;;;;;;;1.70;1.30;;;;;;;13.83;86.71;100356.19;4966999;28;20223;-69
2022/05/30 08:50:34;;;;;;;1.83;1.17;;;;;;;13.87;87.84;100346.41;4964202;28;20198;-69
2022/05/30 08:53:36;;;;;;;1.00;0.90;;;;;;;13.83;86.50;100355.34;4970715;28;20239;-70
2022/05/30 08:56:13;;;;;;;0.93;0.90;;;;;;;14.00;89.44;100344.06;4969736;28;20255;-69
2022/05/30 08:59:18;;;;;;;3.27;1.00;;;;;;;14.00;88.63;100347.56;4984235;28;20198;-70
2022/05/30 09:01:48;;;;;;;1.70;1.33;;;;;;;14.04;87.02;100356.16;4972742;28;20583;-71
2022/05/30 09:04:44;;;;;;;1.20;1.10;;;;;;;14.10;88.75;100353.25;4973544;28;20592;-69
2022/05/30 09:07:16;;;;;;;1.27;1.03;;;;;;;14.14;87.54;100362.69;4983574;28;20208;-70
2022/05/30 09:09:50;;;;;;;1.63;1.17;;;;;;;14.18;87.53;100358.16;4983427;28;20211;-71
2022/05/30 09:12:31;;;;;;;1.40;1.10;;;;;;;14.12;83.53;100361.88;4968337;28;20205;-71
2022/05/30 09:15:15;;;;;;;1.87;1.30;;;;;;;14.14;90.44;100356.56;4969457;28;20435;-71
2022/05/30 09:17:47;;;;;;;1.73;1.50;;;;;;;14.08;88.75;100368.19;4975846;28;20450;-70
2022/05/30 09:20:17;;;;;;;2.93;1.50;;;;;;;13.81;89.20;100360.63;4968298;28;20256;-69
2022/05/30 09:22:44;;;;;;;1.57;1.47;;;;;;;13.52;87.89;100364.50;4983117;28;20200;-70
2022/05/30 09:28:24;;;;;;;4.67;1.20;;;;;;;13.12;94.87;100354.81;4964350;28;20212;-69
2022/05/30 09:31:18;;;;;;;3.43;1.50;;;;;;;13.05;98.78;100352.47;4981481;28;20251;-69
2022/05/30 09:34:30;;;;;;;1.90;1.50;;;;;;;12.97;100.00;100357.13;4985104;28;20215;-71
2022/05/30 09:37:27;;;;;;;1.97;1.60;;;;;;;12.98;100.00;100345.78;4983621;28;20260;-71
2022/05/30 09:40:16;;;;;;;1.63;1.33;;;;;;;13.11;100.00;100333.03;4972807;28;20216;-70
2022/05/30 09:43:06;;;;;;;1.37;1.27;;;;;;;12.96;100.00;100347.56;4966082;28;20234;-73
2022/05/30 09:45:35;;;;;;;1.50;1.40;;;;;;;13.00;100.00;100349.16;4969161;28;20584;-70
2022/05/30 09:48:10;;;;;;;2.53;1.40;;;;;;;13.02;100.00;100339.50;4983125;28;20712;-70
2022/05/30 09:50:46;;;;;;;2.13;1.37;;;;;;;12.91;99.30;100351.28;4975124;28;20293;-68
2022/05/30 09:53:13;;;;;;;1.17;1.07;;;;;;;12.92;100.00;100358.25;4982868;28;20225;-71
2022/05/30 09:55:48;;;;;;;1.30;1.20;;;;;;;12.88;100.00;100367.97;4975113;28;20225;-70
2022/05/30 09:58:17;;;;;;;1.10;1.00;;;;;;;12.87;99.16;100369.75;4975174;28;20248;-69
2022/05/30 10:01:06;;;;;;;1.40;1.30;;;;;;;13.02;100.00;100364.81;4977368;28;20284;-69
2022/05/30 10:03:37;;;;;;;1.30;1.20;;;;;;;13.01;100.00;100366.56;4976482;28;20303;-70
2022/05/30 10:06:26;;;;;;;1.53;1.17;;;;;;;13.03;100.00;100367.38;4988199;28;20263;-68
2022/05/30 10:09:14;;;;;;;1.70;1.40;;;;;;;13.06;100.00;100369.00;4982312;28;20194;-69
2022/05/30 10:11:54;;;;;;;1.50;1.40;;;;;;;12.89;100.00;100377.50;4982591;28;20649;-68
2022/05/30 10:14:23;;;;;;;2.70;1.43;;;;;;;12.82;100.00;100381.28;4973427;28;20235;-68
2022/05/30 10:17:13;;;;;;;1.40;1.30;;;;;;;12.66;100.00;100387.13;4976146;28;20205;-69
2022/05/30 10:19:42;;;;;;;1.67;1.40;;;;;;;12.41;100.00;100392.44;4975077;28;20220;-68
2022/05/30 10:28:49;;;;;;;1.63;1.50;;;;;;;12.24;100.00;100390.47;4984289;28;20668;-69
2022/05/30 10:31:33;;;;;;;3.23;1.90;;;;;;;12.34;100.00;100382.28;4987405;28;20252;-69
2022/05/30 10:34:23;;;;;;;3.47;2.10;;;;;;;12.44;100.00;100386.25;4978535;28;20229;-70
2022/05/30 10:37:02;;;;;;;2.17;1.97;;;;;;;12.65;100.00;100388.03;4974222;28;20209;-69
2022/05/30 10:39:50;;;;;;;2.33;1.90;;;;;;;12.88;100.00;100387.13;4980468;28;20208;-69
2022/05/30 10:42:28;;;;;;;2.37;1.77;;;;;;;12.95;100.00;100397.38;4973610;28;20256;-69
2022/05/30 10:45:02;;;;;;;2.70;1.63;;;;;;;13.42;100.00;100382.38;4941086;23;20235;-73
2022/05/30 10:47:41;;;;;;;2.13;1.90;;;;;;;13.94;99.35;100397.63;4910476;29;20220;-73
2022/05/30 10:50:14;;;;;;;3.70;1.73;;;;;;;14.36;98.04;100394.00;4905890;29;20224;-73
2022/05/30 10:52:46;;;;;;;2.40;1.87;;;;;;;14.77;97.06;100393.03;4904761;29;20218;-74
2022/05/30 10:55:19;;;;;;;1.80;1.70;;;;;;;15.31;90.60;100401.81;4920197;29;20224;-74
2022/05/30 10:57:50;;;;;;;1.70;1.60;;;;;;;15.55;84.63;100406.78;4950352;23;20418;-73
2022/05/30 11:00:20;;;;;;;1.40;1.30;;;;;;;15.74;80.20;100418.97;4947486;28;20209;-72
2022/05/30 11:02:57;;;;;;;2.00;1.53;;;;;;;16.01;79.91;100414.13;4946307;28;20391;-73
2022/05/30 11:05:28;;;;;;;2.10;1.20;;;;;;;16.27;66.67;100431.16;4947893;28;21261;-73
2022/05/30 11:08:05;;;;;;;1.30;1.20;;;;;;;16.32;75.71;100410.69;4942907;28;20308;-72
2022/05/30 11:10:45;;;;;;;1.40;1.30;;;;;;;16.37;75.70;100408.69;4945025;28;20252;-73
2022/05/30 11:13:35;;;;;;;3.90;1.60;;;;;;;16.52;71.36;100412.28;4943942;28;20256;-72
2022/05/30 11:16:34;;;;;;;1.70;1.60;;;;;;;16.43;74.58;100411.00;4968741;28;20307;-72
2022/05/30 11:19:24;;;;;;;1.40;1.30;;;;;;;16.15;78.79;100401.09;4960105;28;20263;-72
2022/05/30 11:22:24;;;;;;;1.70;1.60;;;;;;;15.81;78.65;100402.00;4945671;28;20683;-73
2022/05/30 11:24:53;;;;;;;1.90;1.70;;;;;;;15.50;77.07;100406.16;4960515;28;20202;-72
2022/05/30 11:27:34;;;;;;;2.27;1.80;;;;;;;15.38;77.14;100409.41;4960805;28;20218;-72
2022/05/30 11:30:23;;;;;;;3.30;1.80;;;;;;;15.56;76.41;100407.63;4961010;28;20221;-73
2022/05/30 11:33:10;;;;;;;1.50;1.40;;;;;;;15.95;77.52;100407.38;4960213;28;20210;-72
2022/05/30 11:35:39;;;;;;;2.33;1.60;;;;;;;16.20;73.92;100406.97;4955607;28;20459;-72
2022/05/30 11:38:19;;;;;;;2.10;1.57;;;;;;;16.46;72.69;100409.97;4967049;28;20643;-73
2022/05/30 11:40:57;;;;;;;2.00;1.80;;;;;;;16.49;70.59;100415.06;4958651;28;20216;-72
2022/05/30 11:43:49;;;;;;;1.90;1.80;;;;;;;16.71;69.72;100406.88;4961660;28;20217;-73
2022/05/30 11:46:24;;;;;;;1.73;1.63;;;;;;;16.96;69.54;100405.53;4960051;28;20199;-73
2022/05/30 11:48:58;;;;;;;2.37;1.40;;;;;;;16.88;66.09;100405.94;4960468;28;20230;-73
2022/05/30 11:51:36;;;;;;;2.07;1.87;;;;;;;16.74;67.39;100403.19;4960655;28;21122;-73
2022/05/30 11:54:20;;;;;;;1.70;1.60;;;;;;;16.88;68.70;100394.56;4962522;28;20186;-73
2022/05/30 11:56:56;;;;;;;3.00;1.80;;;;;;;17.01;65.77;100399.06;4956902;28;20198;-74
2022/05/30 11:59:56;;;;;;;2.30;1.67;;;;;;;17.27;69.51;100395.88;4964146;28;20563;-73
2022/05/30 12:02:27;;;;;;;2.37;2.07;;;;;;;17.31;68.00;100397.41;4958563;28;20206;-72
2022/05/30 12:05:27;;;;;;;2.17;1.70;;;;;;;17.21;66.43;100397.91;4960538;28;20202;-72
2022/05/30 12:08:17;;;;;;;2.10;1.90;;;;;;;16.74;66.96;100408.47;4961276;28;20229;-72
2022/05/30 12:11:03;;;;;;;4.23;1.80;;;;;;;16.56;68.80;100403.28;4963219;28;21044;-73
2022/05/30 12:13:46;;;;;;;4.10;1.97;;;;;;;16.34;69.12;100410.63;4962217;28;20209;-72
2022/05/30 12:16:23;;;;;;;1.60;1.50;;;;;;;16.08;69.64;100405.81;4961775;28;20595;-72
2022/05/30 12:24:39;;;;;;;2.57;2.30;;;;;;;14.15;83.88;100419.44;4956236;28;20509;-73
2022/05/30 12:27:11;;;;;;;3.00;2.00;;;;;;;13.43;91.25;100428.59;4958638;28;20740;-73